Pacific Dawn — 2AGH7 — position and weather

sailwx.info

Track history (hours):
 
Tides and Currents Weather Stations Pressure Air Temp Water Temp Dewpoint Dewpoint Depression Visibility Wind Speed Wind Dir Waves Ship Positions

Pacific Dawn

Last reported at 2016-May-24 11:03 UTC. Time now 2016-May-26 16:32 UTC.
Position S 26°41' E 153°14'.

Length 245 m; draft 8.3 m.

Type: Passenger vessel. MMSI: 235059368.

Date/timePositionNaut miles runAvg speedWind from/ knotsBaromVisibWave heightAir tempDewpointWater temp
2016-May-24 11:03S 26°41' E 153°14'812.9
2016-May-24 10:26S 26°48' E 153°11'1214.0
2016-May-24 09:33S 26°60' E 153°14'1414.4
2016-May-24 08:33S 27°13' E 153°20'1413.7
2016-May-24 07:34S 27°23' E 153°09'6 5.8
2016-May-24 06:34S 27°27' E 153°04'0 0.1
2016-May-24 04:29S 27°26' E 153°04'0 0.0
2016-May-24 03:32S 27°26' E 153°04'0 0.0
2016-May-24 02:32S 27°26' E 153°04'0 0.0
2016-May-24 01:32S 27°26' E 153°04'0 0.0
2016-May-24 00:32S 27°26' E 153°04'0 0.0
2016-May-23 23:32S 27°26' E 153°04'0 0.0
2016-May-23 22:32S 27°26' E 153°04'0 0.0
2016-May-23 21:32S 27°26' E 153°04'0 0.0
2016-May-23 20:32S 27°26' E 153°04'1 1.2
2016-May-23 19:33S 27°27' E 153°05'7 6.5
2016-May-23 18:33S 27°22' E 153°10'1413.9
2016-May-23 17:34S 27°12' E 153°21'1514.7
2016-May-23 16:34S 26°58' E 153°14'1212.4
2016-May-23 15:33S 26°46' E 153°11'8 8.5
2016-May-23 14:34S 26°40' E 153°18'10 9.8
2016-May-23 13:32S 26°37' E 153°28'8 8.4
2016-May-23 12:33S 26°35' E 153°37'9 9.2
2016-May-23 11:33S 26°38' E 153°47'8 7.6
2016-May-23 10:33S 26°40' E 153°55'12 9.1
2016-May-23 09:16S 26°28' E 153°58'7 9.9
2016-May-23 08:33S 26°21' E 153°58'11 8.6
2016-May-23 07:20S 26°12' E 153°52'42 1.0
2016-May-21 11:33S 26°41' E 153°19'8 7.0
2016-May-21 10:22S 26°46' E 153°11'1113.8
2016-May-21 09:34S 26°57' E 153°13'1414.3
2016-May-21 08:33S 27°10' E 153°21'1413.6
2016-May-21 07:33S 27°21' E 153°11'8 7.7
2016-May-21 06:33S 27°27' E 153°06'2 1.7
2016-May-21 05:31S 27°26' E 153°04'0 0.0
2016-May-21 04:31S 27°26' E 153°04'0 0.0
2016-May-21 03:28S 27°26' E 153°04'0 0.0
2016-May-21 02:28S 27°26' E 153°04'0 0.0
2016-May-21 01:31S 27°26' E 153°04'0 0.0
2016-May-21 00:28S 27°26' E 153°04'0 0.0
2016-May-20 23:28S 27°26' E 153°04'0 0.0
2016-May-20 22:31S 27°26' E 153°04'0 0.0
2016-May-20 21:31S 27°26' E 153°04'0 0.0
2016-May-20 20:31S 27°26' E 153°04'0 0.1
2016-May-20 19:33S 27°27' E 153°04'6 5.8
2016-May-20 18:33S 27°23' E 153°09'1413.6
2016-May-20 17:34S 27°13' E 153°20'1515.2
2016-May-20 16:33S 26°59' E 153°14'1713.9
2016-May-20 15:19S 26°42' E 153°11'1417.0
2016-May-20 14:30S 26°39' E 153°26'46717.6
2016-May-19 12:00S 21°54' E 160°12'43517.4 120 / 131011.910.8 1.025.019.627.0
2016-May-18 11:00S 18°00' E 166°42'108 4.5 090 / 191010.810.8 1.026.024.628.0
2016-May-17 11:00S 19°42' E 167°18'405 8.4 110 / 231012.010.8 1.025.022.027.0
2016-May-15 11:00S 23°54' E 161°36'42718.6 130 / 191012.610.8 1.024.017.625.0
2016-May-14 12:00S 26°18' E 154°12'   150 / 151017.510.8 1.022.514.024.0
Track history (hours):
 
Tides and Currents Weather Stations Pressure Air Temp Water Temp Dewpoint Dewpoint Depression Visibility Wind Speed Wind Dir Waves Ship Positions

Pacific Dawn

Last reported at 2016-May-24 11:03 UTC. Time now 2016-May-26 16:32 UTC.
Position S 26°41' E 153°14'.

Length 245 m; draft 8.3 m.

Type: Passenger vessel. MMSI: 235059368.

Date/timePositionNaut miles runAvg speedWind from/ knotsBaromVisibWave heightAir tempDewpointWater temp
2016-May-24 11:03S 26°41' E 153°14'812.9
2016-May-24 10:26S 26°48' E 153°11'1214.0
2016-May-24 09:33S 26°60' E 153°14'1414.4
2016-May-24 08:33S 27°13' E 153°20'1413.7
2016-May-24 07:34S 27°23' E 153°09'6 5.8
2016-May-24 06:34S 27°27' E 153°04'0 0.1
2016-May-24 04:29S 27°26' E 153°04'0 0.0
2016-May-24 03:32S 27°26' E 153°04'0 0.0
2016-May-24 02:32S 27°26' E 153°04'0 0.0
2016-May-24 01:32S 27°26' E 153°04'0 0.0
2016-May-24 00:32S 27°26' E 153°04'0 0.0
2016-May-23 23:32S 27°26' E 153°04'0 0.0
2016-May-23 22:32S 27°26' E 153°04'0 0.0
2016-May-23 21:32S 27°26' E 153°04'0 0.0
2016-May-23 20:32S 27°26' E 153°04'1 1.2
2016-May-23 19:33S 27°27' E 153°05'7 6.5
2016-May-23 18:33S 27°22' E 153°10'1413.9
2016-May-23 17:34S 27°12' E 153°21'1514.7
2016-May-23 16:34S 26°58' E 153°14'1212.4
2016-May-23 15:33S 26°46' E 153°11'8 8.5
2016-May-23 14:34S 26°40' E 153°18'10 9.8
2016-May-23 13:32S 26°37' E 153°28'8 8.4
2016-May-23 12:33S 26°35' E 153°37'9 9.2
2016-May-23 11:33S 26°38' E 153°47'8 7.6
2016-May-23 10:33S 26°40' E 153°55'12 9.1
2016-May-23 09:16S 26°28' E 153°58'7 9.9
2016-May-23 08:33S 26°21' E 153°58'11 8.6
2016-May-23 07:20S 26°12' E 153°52'42 1.0
2016-May-21 11:33S 26°41' E 153°19'8 7.0
2016-May-21 10:22S 26°46' E 153°11'1113.8
2016-May-21 09:34S 26°57' E 153°13'1414.3
2016-May-21 08:33S 27°10' E 153°21'1413.6
2016-May-21 07:33S 27°21' E 153°11'8 7.7
2016-May-21 06:33S 27°27' E 153°06'2 1.7
2016-May-21 05:31S 27°26' E 153°04'0 0.0
2016-May-21 04:31S 27°26' E 153°04'0 0.0
2016-May-21 03:28S 27°26' E 153°04'0 0.0
2016-May-21 02:28S 27°26' E 153°04'0 0.0
2016-May-21 01:31S 27°26' E 153°04'0 0.0
2016-May-21 00:28S 27°26' E 153°04'0 0.0
2016-May-20 23:28S 27°26' E 153°04'0 0.0
2016-May-20 22:31S 27°26' E 153°04'0 0.0
2016-May-20 21:31S 27°26' E 153°04'0 0.0
2016-May-20 20:31S 27°26' E 153°04'0 0.1
2016-May-20 19:33S 27°27' E 153°04'6 5.8
2016-May-20 18:33S 27°23' E 153°09'1413.6
2016-May-20 17:34S 27°13' E 153°20'1515.2
2016-May-20 16:33S 26°59' E 153°14'1713.9
2016-May-20 15:19S 26°42' E 153°11'1417.0
2016-May-20 14:30S 26°39' E 153°26'46717.6
2016-May-19 12:00S 21°54' E 160°12'43517.4 120 / 131011.910.8 1.025.019.627.0
2016-May-18 11:00S 18°00' E 166°42'108 4.5 090 / 191010.810.8 1.026.024.628.0
2016-May-17 11:00S 19°42' E 167°18'405 8.4 110 / 231012.010.8 1.025.022.027.0
2016-May-15 11:00S 23°54' E 161°36'42718.6 130 / 191012.610.8 1.024.017.625.0
2016-May-14 12:00S 26°18' E 154°12'   150 / 151017.510.8 1.022.514.024.0

Dump ship's entire track history